Time;durP1;ratioP1;P1;durP2;ratioP2;P2;SDS_P1;SDS_P2;PMS_P1;PMS_P2;Temp;Humidity;BMP_temperature;BMP_pressure;BME280_temperature;BME280_humidity;BME280_pressure;Samples;Min_cycle;Max_cycle;Signal;HPM_P1;HPM_P2
2023/12/28 00:01:51;;;;;;;9.50;3.60;;;;;;;2.25;70.73;99886.67;106944;1266;72425;-39
2023/12/28 00:04:19;;;;;;;8.60;3.60;;;;;;;2.23;70.71;99877.17;106962;1260;59594;-39
2023/12/28 00:06:46;;;;;;;6.70;3.50;;;;;;;2.22;70.44;99882.45;106961;1260;60000;-39
2023/12/28 00:09:14;;;;;;;7.30;3.10;;;;;;;2.22;70.39;99892.52;106974;1265;71801;-39
2023/12/28 00:11:42;;;;;;;10.70;3.50;;;;;;;2.27;70.34;99896.91;106903;1261;67618;-39
2023/12/28 00:14:09;;;;;;;6.60;2.70;;;;;;;2.35;70.05;99900.48;106970;1263;72519;-39
2023/12/28 00:16:37;;;;;;;9.70;3.40;;;;;;;2.37;69.89;99902.84;107001;1261;59270;-39
2023/12/28 00:19:05;;;;;;;9.00;3.60;;;;;;;2.38;69.55;99910.66;106931;1261;60022;-39
2023/12/28 00:21:32;;;;;;;10.00;3.80;;;;;;;2.37;69.37;99912.02;106924;1260;72746;-39
2023/12/28 00:24:00;;;;;;;9.50;4.00;;;;;;;2.35;69.33;99913.16;106942;1260;66606;-39
2023/12/28 00:26:27;;;;;;;7.80;3.20;;;;;;;2.34;69.09;99917.83;106946;1265;72692;-39
2023/12/28 00:29:02;;;;;;;7.00;2.90;;;;;;;2.38;68.74;99917.81;106977;1262;59804;-39
2023/12/28 00:31:29;;;;;;;6.50;3.40;;;;;;;2.43;68.96;99916.99;106996;1261;59634;-39
2023/12/28 00:33:57;;;;;;;9.60;3.40;;;;;;;2.39;68.49;99913.10;106978;1260;73059;-39
2023/12/28 00:36:25;;;;;;;8.30;3.00;;;;;;;2.39;68.37;99918.88;106890;1261;67766;-39
2023/12/28 00:38:52;;;;;;;8.00;3.30;;;;;;;2.37;67.84;99922.77;106881;1261;72484;-39
2023/12/28 00:41:20;;;;;;;7.20;3.50;;;;;;;2.34;68.06;99928.80;106841;1264;59598;-39
2023/12/28 00:43:48;;;;;;;8.20;3.20;;;;;;;2.32;67.51;99928.73;106869;1260;59762;-39
2023/12/28 00:46:15;;;;;;;6.80;3.10;;;;;;;2.33;67.65;99926.83;106892;1261;73220;-39
2023/12/28 00:48:43;;;;;;;8.30;3.10;;;;;;;2.38;67.30;99929.38;106884;1266;67972;-39
2023/12/28 00:51:11;;;;;;;10.00;3.10;;;;;;;2.40;67.36;99933.59;106885;1261;71511;-39
2023/12/28 00:53:38;;;;;;;8.60;3.60;;;;;;;2.36;67.29;99934.81;106850;1264;60341;-39
2023/12/28 00:56:06;;;;;;;8.90;3.40;;;;;;;2.36;67.24;99931.23;106886;1266;59528;-39
2023/12/28 00:58:33;;;;;;;9.60;2.90;;;;;;;2.34;67.24;99929.93;106903;1266;71866;-39
2023/12/28 01:01:01;;;;;;;9.60;3.50;;;;;;;2.33;67.34;99923.05;106856;1266;66405;-40
2023/12/28 01:03:29;;;;;;;11.30;3.50;;;;;;;2.33;67.16;99920.00;106840;1260;72764;-39
2023/12/28 01:05:56;;;;;;;8.30;3.20;;;;;;;2.38;67.08;99920.17;106881;1261;60823;-39
2023/12/28 01:08:24;;;;;;;10.60;3.70;;;;;;;2.42;66.88;99916.38;106856;1263;59190;-39
2023/12/28 01:10:51;;;;;;;7.70;3.30;;;;;;;2.39;66.70;99916.58;106838;1266;71582;-39
2023/12/28 01:13:19;;;;;;;7.00;3.30;;;;;;;2.36;66.61;99920.87;106765;1266;66298;-39
2023/12/28 01:15:46;;;;;;;6.40;3.70;;;;;;;2.33;66.82;99914.27;106856;1264;71090;-39
2023/12/28 01:18:14;;;;;;;11.10;3.90;;;;;;;2.28;66.86;99909.15;106851;1266;59638;-39
2023/12/28 01:20:41;;;;;;;5.90;2.80;;;;;;;2.23;66.91;99906.62;106845;1266;60102;-39
2023/12/28 01:23:09;;;;;;;7.40;2.90;;;;;;;2.17;67.16;99909.38;106775;1264;72318;-39
2023/12/28 01:25:37;;;;;;;7.50;2.70;;;;;;;2.19;67.32;99909.55;106812;1262;66068;-39
2023/12/28 01:28:04;;;;;;;7.20;2.70;;;;;;;2.21;67.19;99912.20;106653;1268;71025;-39
2023/12/28 01:30:34;;;;;;;8.30;2.90;;;;;;;2.17;67.31;99907.77;106789;1264;59653;-39
2023/12/28 01:33:03;;;;;;;8.60;3.20;;;;;;;2.14;67.40;99910.86;106803;1264;59801;-39
2023/12/28 01:35:31;;;;;;;8.70;3.10;;;;;;;2.10;67.56;99907.70;106898;1264;71829;-39
2023/12/28 01:38:00;;;;;;;9.10;3.40;;;;;;;2.07;67.49;99905.67;106817;1264;67368;-39
2023/12/28 01:40:28;;;;;;;9.30;3.50;;;;;;;2.04;67.79;99911.69;106769;1268;72785;-39
2023/12/28 01:42:55;;;;;;;9.50;3.30;;;;;;;2.08;67.66;99915.64;106844;1266;60831;-39
2023/12/28 01:45:23;;;;;;;10.60;3.30;;;;;;;2.12;67.45;99915.17;106854;1264;60066;-39
2023/12/28 01:47:55;;;;;;;7.50;3.30;;;;;;;2.11;67.17;99917.06;106860;1264;73174;-39
2023/12/28 01:50:23;;;;;;;11.20;3.40;;;;;;;2.09;67.20;99919.70;106850;1263;67604;-39
2023/12/28 01:52:51;;;;;;;9.90;3.60;;;;;;;2.06;67.12;99918.30;106837;1267;72852;-39
2023/12/28 01:55:18;;;;;;;9.90;3.50;;;;;;;2.03;67.12;99920.86;106825;1266;59627;-39
2023/12/28 01:57:46;;;;;;;9.00;2.90;;;;;;;2.00;67.11;99916.35;106881;1264;60267;-39
2023/12/28 02:00:14;;;;;;;7.90;2.90;;;;;;;2.01;66.82;99913.20;104540;1268;1003260;-39
2023/12/28 02:02:43;;;;;;;6.70;3.10;;;;;;;2.06;66.75;99917.56;106866;1262;67093;-39
2023/12/28 02:05:11;;;;;;;8.80;2.60;;;;;;;2.04;66.50;99912.45;106830;1267;72681;-39
2023/12/28 02:07:39;;;;;;;10.40;3.40;;;;;;;2.01;66.49;99914.68;106839;1264;59615;-39
2023/12/28 02:10:07;;;;;;;7.80;3.30;;;;;;;1.98;66.25;99917.02;106867;1266;60842;-39
2023/12/28 02:12:35;;;;;;;9.30;3.20;;;;;;;1.95;66.21;99918.41;106827;1266;71695;-39
2023/12/28 02:15:03;;;;;;;8.30;3.40;;;;;;;1.91;66.29;99925.30;106796;1264;67562;-39
2023/12/28 02:18:12;;;;;;;5.90;2.80;;;;;;;1.87;66.51;99929.16;106869;1265;71402;-39
2023/12/28 02:20:40;;;;;;;8.00;3.10;;;;;;;1.92;66.03;99932.13;106794;1264;59627;-40
2023/12/28 02:23:09;;;;;;;7.00;3.10;;;;;;;1.92;65.92;99925.56;103821;1264;1003759;-41
2023/12/28 02:25:37;;;;;;;7.30;2.80;;;;;;;1.87;66.01;99933.05;106833;1269;72062;-38
2023/12/28 02:28:04;;;;;;;7.20;2.90;;;;;;;1.81;65.76;99941.05;106856;1262;67867;-38
2023/12/28 02:30:32;;;;;;;9.00;3.10;;;;;;;1.76;65.84;99950.42;106879;1264;72645;-38
2023/12/28 02:33:17;;;;;;;9.30;3.10;;;;;;;1.70;65.97;99953.86;106819;1264;59736;-38
2023/12/28 02:35:52;;;;;;;12.70;3.70;;;;;;;1.66;66.01;99957.12;106753;1264;60167;-38
2023/12/28 02:38:20;;;;;;;10.10;3.00;;;;;;;1.63;66.04;99962.82;106846;1263;72828;-38
2023/12/28 02:40:48;;;;;;;8.30;3.00;;;;;;;1.66;66.19;99962.89;106856;1264;66650;-38
2023/12/28 02:43:16;;;;;;;8.80;2.90;;;;;;;1.71;65.82;99968.70;106762;1264;71411;-38
2023/12/28 02:45:43;;;;;;;7.70;2.90;;;;;;;1.69;65.83;99969.17;106858;1266;59651;-38
2023/12/28 02:48:11;;;;;;;8.10;2.50;;;;;;;1.65;65.71;99967.49;106856;1264;59631;-38
2023/12/28 02:50:39;;;;;;;9.90;3.20;;;;;;;1.62;65.69;99975.23;106848;1264;72959;-38
2023/12/28 02:53:07;;;;;;;9.70;3.40;;;;;;;1.61;65.62;99978.55;106872;1264;67709;-38
2023/12/28 02:55:34;;;;;;;11.50;3.50;;;;;;;1.55;65.64;99980.23;106843;1267;72154;-38
2023/12/28 02:58:02;;;;;;;6.30;2.60;;;;;;;1.50;65.51;99983.34;106838;1264;59650;-38
2023/12/28 03:00:30;;;;;;;8.10;3.20;;;;;;;1.46;65.62;99977.08;106846;1267;59970;-38
2023/12/28 03:02:58;;;;;;;8.60;2.90;;;;;;;1.43;65.60;99975.35;106879;1264;73030;-38
2023/12/28 03:05:27;;;;;;;8.20;2.60;;;;;;;1.46;65.67;99981.52;106836;1264;66462;-38
2023/12/28 03:07:55;;;;;;;6.60;3.30;;;;;;;1.53;65.37;99984.85;106818;1264;72693;-38
2023/12/28 03:10:23;;;;;;;6.90;3.10;;;;;;;1.56;65.15;99992.83;106813;1263;59478;-38
2023/12/28 03:12:51;;;;;;;9.60;3.10;;;;;;;1.57;65.14;100001.59;106834;1264;59388;-38
2023/12/28 03:15:18;;;;;;;7.80;2.70;;;;;;;1.57;65.08;100007.63;106832;1264;71797;-38
2023/12/28 03:17:46;;;;;;;8.70;3.30;;;;;;;1.55;65.06;100005.04;106075;1267;1003348;-38
2023/12/28 03:20:14;;;;;;;6.50;3.10;;;;;;;1.53;64.86;100006.66;106873;1263;71413;-38
2023/12/28 03:22:43;;;;;;;9.70;3.10;;;;;;;1.49;64.94;100000.23;106812;1263;59573;-38
2023/12/28 03:25:11;;;;;;;7.30;3.00;;;;;;;1.43;65.22;99995.70;106839;1263;60209;-38
2023/12/28 03:27:38;;;;;;;6.80;3.30;;;;;;;1.36;65.14;99995.18;106814;1264;72147;-38
2023/12/28 03:30:07;;;;;;;9.70;2.90;;;;;;;1.29;65.65;100003.58;106865;1264;67630;-38
2023/12/28 03:32:35;;;;;;;7.10;2.80;;;;;;;1.30;65.76;100004.33;106890;1264;71433;-38
2023/12/28 03:35:04;;;;;;;9.40;3.30;;;;;;;1.32;65.84;100000.45;106809;1267;60486;-38
2023/12/28 03:37:31;;;;;;;7.10;3.10;;;;;;;1.28;65.93;99995.20;106912;1264;60423;-38
2023/12/28 03:39:59;;;;;;;7.80;3.20;;;;;;;1.23;66.04;99992.27;106875;1264;73888;-38
2023/12/28 03:42:28;;;;;;;8.10;3.70;;;;;;;1.17;66.32;99986.23;106822;1264;66288;-38
2023/12/28 03:44:56;;;;;;;9.10;4.00;;;;;;;1.12;66.47;99984.52;106822;1264;72685;-40
2023/12/28 03:47:24;;;;;;;6.70;3.00;;;;;;;1.06;66.91;99988.85;106814;1264;60559;-38
2023/12/28 03:49:52;;;;;;;8.10;2.90;;;;;;;0.99;67.05;99991.42;106757;1269;59296;-38
2023/12/28 03:52:19;;;;;;;9.00;3.20;;;;;;;0.91;67.41;99989.62;106816;1263;73777;-38
2023/12/28 03:54:47;;;;;;;11.20;3.50;;;;;;;0.86;67.74;99987.65;106814;1264;67598;-38
2023/12/28 03:57:14;;;;;;;11.80;3.50;;;;;;;0.88;68.06;99997.29;106862;1263;73055;-38
2023/12/28 03:59:42;;;;;;;8.50;3.30;;;;;;;0.83;68.17;99998.77;106807;1264;60325;-38
2023/12/28 04:02:09;;;;;;;11.10;3.30;;;;;;;0.75;68.36;99996.15;106891;1264;60486;-38
2023/12/28 04:04:37;;;;;;;7.60;3.60;;;;;;;0.73;68.49;99994.38;106823;1264;72669;-38
2023/12/28 04:07:07;;;;;;;11.90;4.40;;;;;;;0.70;68.73;99990.38;106767;1264;67621;-38
2023/12/28 04:09:34;;;;;;;;;;;;;;;0.67;68.81;99989.02;106914;1263;70522;-38
2023/12/28 04:12:03;;;;;;;9.60;3.90;;;;;;;0.63;68.89;99994.45;106837;1264;60553;-39
2023/12/28 04:14:30;;;;;;;12.80;3.50;;;;;;;0.59;69.00;99998.30;106918;1264;60456;-38
2023/12/28 04:16:58;;;;;;;11.80;3.20;;;;;;;0.62;69.02;100000.59;106824;1267;72590;-38
2023/12/28 04:19:25;;;;;;;8.30;3.30;;;;;;;0.67;69.16;100001.14;106817;1264;66760;-38
2023/12/28 04:21:53;;;;;;;7.00;3.40;;;;;;;0.64;69.04;100000.36;106797;1264;72744;-38
2023/12/28 04:24:20;;;;;;;9.70;3.40;;;;;;;0.61;69.26;100008.54;106762;1263;59868;-39
2023/12/28 04:26:48;;;;;;;7.20;3.80;;;;;;;0.55;69.31;100018.40;106753;1264;60931;-39
2023/12/28 04:29:15;;;;;;;11.40;3.50;;;;;;;0.50;69.61;100020.52;106911;1264;72566;-39
2023/12/28 04:31:43;;;;;;;10.10;4.50;;;;;;;0.43;69.52;100016.23;106832;1263;66764;-39
2023/12/28 04:34:11;;;;;;;6.90;3.40;;;;;;;0.39;69.72;100013.27;106751;1264;72723;-39
2023/12/28 04:36:46;;;;;;;10.90;3.40;;;;;;;0.40;69.72;100015.88;106765;1267;60546;-39
2023/12/28 04:39:14;;;;;;;7.10;3.30;;;;;;;0.46;69.63;100019.27;106871;1262;60431;-39
2023/12/28 04:41:42;;;;;;;8.80;3.80;;;;;;;0.47;69.74;100020.11;106769;1263;73787;-39
2023/12/28 04:44:09;;;;;;;9.00;3.80;;;;;;;0.43;70.01;100022.96;106781;1262;67564;-39
2023/12/28 04:46:42;;;;;;;8.50;3.90;;;;;;;0.41;70.16;100025.90;106895;1264;71475;-39
2023/12/28 04:49:10;;;;;;;11.60;4.10;;;;;;;0.36;70.21;100019.26;106849;1264;60438;-39
2023/12/28 04:51:43;;;;;;;8.90;4.30;;;;;;;0.31;70.32;100025.00;106878;1264;60216;-39
2023/12/28 04:54:10;;;;;;;10.70;4.80;;;;;;;0.27;70.37;100025.77;106884;1263;73815;-39
2023/12/28 04:56:38;;;;;;;14.20;4.50;;;;;;;0.25;70.60;100020.66;106839;1263;66846;-39
2023/12/28 04:59:06;;;;;;;9.20;3.50;;;;;;;0.30;70.61;100016.79;106748;1264;70752;-39
2023/12/28 05:01:33;;;;;;;13.30;4.00;;;;;;;0.37;70.72;100014.25;106925;1263;60575;-39
2023/12/28 05:04:01;;;;;;;8.40;3.90;;;;;;;0.36;70.61;100010.20;106856;1264;61048;-39
2023/12/28 05:06:29;;;;;;;10.50;4.30;;;;;;;0.35;70.69;100017.98;106845;1264;72428;-39
2023/12/28 05:08:57;;;;;;;11.80;4.20;;;;;;;0.31;70.72;100018.44;106815;1263;67536;-39
2023/12/28 05:11:24;;;;;;;7.60;3.70;;;;;;;0.28;70.88;100026.57;106781;1264;72452;-39
2023/12/28 05:13:52;;;;;;;10.10;4.10;;;;;;;0.23;71.03;100028.84;106769;1265;60421;-39
2023/12/28 05:16:20;;;;;;;11.10;3.90;;;;;;;0.18;70.97;100029.98;106845;1264;60328;-39
2023/12/28 05:18:47;;;;;;;11.10;3.90;;;;;;;0.19;71.07;100033.55;106910;1264;73911;-39
2023/12/28 05:21:15;;;;;;;13.30;4.60;;;;;;;0.21;71.20;100030.06;106855;1264;66470;-39
2023/12/28 05:23:43;;;;;;;10.90;4.50;;;;;;;0.13;71.25;100023.81;106810;1263;72393;-39
2023/12/28 05:26:10;;;;;;;10.50;4.70;;;;;;;0.19;71.63;100032.75;106829;1263;60325;-39
2023/12/28 05:28:38;;;;;;;10.20;4.40;;;;;;;0.17;71.71;100029.02;106929;1263;60472;-39
2023/12/28 05:31:05;;;;;;;11.00;4.20;;;;;;;0.16;71.90;100026.68;106883;1264;73794;-39
2023/12/28 05:33:33;;;;;;;13.50;5.00;;;;;;;0.15;72.14;100023.59;106871;1263;67918;-39
2023/12/28 05:36:00;;;;;;;9.00;4.30;;;;;;;0.15;72.24;100019.17;106841;1264;71701;-39
2023/12/28 05:38:28;;;;;;;10.70;3.60;;;;;;;0.21;71.92;100013.60;106872;1262;59664;-39
2023/12/28 05:40:55;;;;;;;8.40;3.90;;;;;;;0.29;72.05;100009.92;106837;1263;60584;-39
2023/12/28 05:43:23;;;;;;;10.70;4.10;;;;;;;0.32;72.07;100008.89;106852;1264;72652;-39
2023/12/28 05:45:50;;;;;;;11.10;4.60;;;;;;;0.33;72.01;100011.71;106857;1263;66615;-39
2023/12/28 05:48:18;;;;;;;11.80;4.80;;;;;;;0.34;72.32;100012.55;106848;1264;71489;-39
2023/12/28 05:50:45;;;;;;;8.30;4.10;;;;;;;0.35;72.12;100008.17;106857;1264;60589;-39
2023/12/28 05:53:14;;;;;;;10.40;4.80;;;;;;;0.31;72.22;100004.05;106859;1264;60345;-39
2023/12/28 05:55:41;;;;;;;15.00;4.80;;;;;;;0.32;72.46;100004.52;106863;1264;72659;-39
2023/12/28 05:58:09;;;;;;;10.00;4.50;;;;;;;0.40;72.21;100010.23;106859;1264;66281;-39
2023/12/28 06:00:38;;;;;;;10.00;4.30;;;;;;;0.51;72.05;100011.92;106922;1263;72686;-39
2023/12/28 06:03:06;;;;;;;9.30;4.20;;;;;;;0.52;72.00;100011.54;106998;1264;60444;-39
2023/12/28 06:05:33;;;;;;;11.80;4.90;;;;;;;0.43;72.14;99996.45;106855;1263;60008;-39
2023/12/28 06:08:01;;;;;;;13.40;5.30;;;;;;;0.47;72.17;100005.39;106857;1264;73922;-39
2023/12/28 06:10:29;;;;;;;14.20;5.60;;;;;;;0.43;72.26;100010.27;106860;1262;66462;-39
2023/12/28 06:12:56;;;;;;;11.40;6.00;;;;;;;0.40;72.44;100012.78;106859;1263;72711;-39
2023/12/28 06:15:24;;;;;;;10.40;5.20;;;;;;;0.39;72.62;100009.23;106810;1264;60539;-39
2023/12/28 06:17:51;;;;;;;11.30;4.70;;;;;;;0.40;72.66;100004.15;107238;1257;60379;-39
2023/12/28 06:20:19;;;;;;;9.90;4.80;;;;;;;0.53;72.83;100013.73;107272;1257;73946;-39
2023/12/28 06:22:48;;;;;;;9.10;4.10;;;;;;;0.53;73.12;100015.88;107194;1257;66330;-39
2023/12/28 06:25:16;;;;;;;8.60;4.70;;;;;;;0.52;73.43;100025.79;107184;1257;71434;-39
2023/12/28 06:27:44;;;;;;;13.20;6.00;;;;;;;0.50;73.50;100026.80;107210;1257;60437;-39
2023/12/28 06:30:12;;;;;;;15.00;5.90;;;;;;;0.49;73.70;100026.06;107223;1257;60562;-39
2023/12/28 06:32:40;;;;;;;15.60;6.30;;;;;;;0.52;73.98;100027.33;107272;1257;73864;-39
2023/12/28 06:35:08;;;;;;;11.90;5.40;;;;;;;0.62;74.04;100025.19;106482;1257;1003098;-39
2023/12/28 06:37:37;;;;;;;11.40;6.00;;;;;;;0.71;74.05;100027.47;107256;1261;72709;-39
2023/12/28 06:40:05;;;;;;;12.00;6.20;;;;;;;0.71;74.08;100029.66;107258;1257;59581;-39
2023/12/28 06:42:33;;;;;;;20.30;7.10;;;;;;;0.71;73.88;100029.40;107278;1257;61141;-39
2023/12/28 06:45:00;;;;;;;12.40;6.60;;;;;;;0.70;73.71;100039.91;107204;1257;73791;-39
2023/12/28 06:47:28;;;;;;;14.00;6.60;;;;;;;0.69;73.41;100045.67;107219;1262;66789;-39
2023/12/28 06:49:55;;;;;;;10.90;5.70;;;;;;;0.72;73.04;100052.07;107234;1257;72739;-39
2023/12/28 06:52:23;;;;;;;10.90;5.90;;;;;;;0.77;72.41;100052.84;107253;1257;60436;-39
2023/12/28 06:54:53;;;;;;;9.60;5.10;;;;;;;0.79;72.55;100045.88;107201;1257;60291;-39
2023/12/28 06:57:20;;;;;;;12.60;5.50;;;;;;;0.79;72.55;100052.70;107230;1257;72564;-39
2023/12/28 06:59:47;;;;;;;11.10;5.60;;;;;;;0.76;72.41;100063.46;107189;1257;67001;-39
2023/12/28 07:02:15;;;;;;;11.80;5.70;;;;;;;0.74;72.64;100064.38;107192;1257;71437;-39
2023/12/28 07:04:42;;;;;;;14.00;5.90;;;;;;;0.73;72.61;100062.02;107170;1257;61069;-39
2023/12/28 07:07:10;;;;;;;14.30;4.90;;;;;;;0.80;72.21;100058.36;107216;1257;60575;-39
2023/12/28 07:09:37;;;;;;;13.30;5.10;;;;;;;0.86;72.26;100066.75;107231;1257;73831;-39
2023/12/28 07:12:06;;;;;;;13.40;6.00;;;;;;;0.86;71.89;100066.60;107275;1257;67545;-39
2023/12/28 07:14:36;;;;;;;9.80;5.00;;;;;;;0.86;72.08;100073.59;107272;1257;72689;-39
2023/12/28 07:17:03;;;;;;;10.40;5.10;;;;;;;0.87;72.20;100073.27;107230;1257;60154;-39
2023/12/28 07:19:31;;;;;;;11.10;4.80;;;;;;;0.87;72.12;100084.21;107226;1257;60421;-40
2023/12/28 07:21:58;;;;;;;13.80;5.20;;;;;;;0.89;72.31;100093.85;107236;1258;73800;-39
2023/12/28 07:24:26;;;;;;;10.60;4.40;;;;;;;0.97;72.20;100093.95;107262;1257;66460;-39
2023/12/28 07:26:54;;;;;;;13.90;5.60;;;;;;;1.09;71.94;100085.77;107171;1257;72749;-39
2023/12/28 07:29:22;;;;;;;9.70;4.70;;;;;;;1.10;71.89;100084.10;107204;1257;60444;-39
2023/12/28 07:31:54;;;;;;;12.10;4.70;;;;;;;1.10;71.92;100084.15;107226;1257;61053;-39
2023/12/28 07:34:21;;;;;;;10.70;5.40;;;;;;;1.10;71.89;100081.85;107253;1257;73774;-40
2023/12/28 07:36:49;;;;;;;9.30;5.30;;;;;;;1.09;72.05;100074.11;107218;1257;67546;-39
2023/12/28 07:39:17;;;;;;;11.40;4.70;;;;;;;1.11;72.29;100079.02;107241;1257;72437;-39
2023/12/28 07:41:44;;;;;;;9.70;5.10;;;;;;;1.18;72.02;100087.23;107184;1257;60342;-39
2023/12/28 07:44:12;;;;;;;11.00;5.50;;;;;;;1.29;71.89;100086.87;107233;1257;60377;-39
2023/12/28 07:46:39;;;;;;;10.00;5.90;;;;;;;1.34;71.83;100087.95;107274;1258;72561;-39
2023/12/28 07:49:07;;;;;;;11.30;4.80;;;;;;;1.37;71.72;100093.10;107109;1258;66610;-39
2023/12/28 07:51:34;;;;;;;14.40;5.10;;;;;;;1.37;71.78;100096.79;107197;1257;72421;-39
2023/12/28 07:54:02;;;;;;;15.60;6.20;;;;;;;1.36;71.59;100098.84;107113;1257;60356;-39
2023/12/28 07:56:30;;;;;;;10.00;4.50;;;;;;;1.35;71.77;100097.56;107101;1257;60402;-39
2023/12/28 07:58:57;;;;;;;12.40;4.80;;;;;;;1.43;71.82;100099.52;107149;1257;72575;-39
2023/12/28 08:01:25;;;;;;;10.20;5.40;;;;;;;1.53;71.66;100100.35;107087;1257;66328;-39
2023/12/28 08:03:53;;;;;;;12.90;5.50;;;;;;;1.56;71.60;100096.35;107077;1258;72475;-39
2023/12/28 08:06:21;;;;;;;14.00;5.70;;;;;;;1.56;71.61;100094.84;107119;1259;60575;-39
2023/12/28 08:08:48;;;;;;;14.40;5.70;;;;;;;1.57;71.51;100097.04;107159;1258;60335;-39
2023/12/28 08:11:16;;;;;;;11.70;5.80;;;;;;;1.56;71.58;100099.02;107131;1257;73858;-39
2023/12/28 08:13:43;;;;;;;12.90;6.20;;;;;;;1.54;71.63;100094.56;107150;1258;67746;-39
2023/12/28 08:16:11;;;;;;;14.80;5.60;;;;;;;1.58;71.59;100094.57;107168;1258;71402;-39
2023/12/28 08:18:38;;;;;;;14.90;6.00;;;;;;;1.65;71.31;100094.49;107242;1257;60495;-39
2023/12/28 08:21:06;;;;;;;13.70;6.20;;;;;;;1.64;71.31;100096.50;107210;1258;60424;-39
2023/12/28 08:23:34;;;;;;;15.70;6.40;;;;;;;1.62;71.28;100084.42;107170;1257;73838;-39
2023/12/28 08:26:02;;;;;;;10.70;5.10;;;;;;;1.62;71.65;100080.36;107123;1257;67612;-39
2023/12/28 08:28:29;;;;;;;11.80;5.90;;;;;;;1.63;71.62;100081.32;107121;1258;72690;-39
2023/12/28 08:30:57;;;;;;;10.70;5.70;;;;;;;1.67;71.86;100086.63;107094;1258;60888;-39
2023/12/28 08:33:25;;;;;;;31.80;7.90;;;;;;;1.79;71.77;100088.32;107135;1258;59212;-39
2023/12/28 08:35:53;;;;;;;11.70;5.60;;;;;;;1.93;71.31;100081.97;107115;1257;73841;-39
2023/12/28 08:38:21;;;;;;;11.80;5.00;;;;;;;1.99;71.07;100082.63;107175;1257;67688;-39
2023/12/28 08:40:48;;;;;;;14.80;5.50;;;;;;;2.04;71.07;100081.41;107127;1257;72482;-39
2023/12/28 08:43:16;;;;;;;10.90;5.00;;;;;;;2.10;70.96;100082.25;107085;1258;60445;-39
2023/12/28 08:45:43;;;;;;;11.10;4.80;;;;;;;2.16;70.69;100083.14;107153;1258;60454;-39
2023/12/28 08:48:11;;;;;;;7.90;4.90;;;;;;;2.19;70.32;100072.81;107121;1257;73850;-39
2023/12/28 08:50:39;;;;;;;11.10;4.60;;;;;;;2.19;70.10;100070.95;107150;1257;66324;-39
2023/12/28 08:53:06;;;;;;;10.60;4.60;;;;;;;2.25;69.92;100063.77;107151;1257;73625;-39
2023/12/28 08:55:34;;;;;;;13.60;5.10;;;;;;;2.29;69.82;100054.30;107139;1257;60546;-39
2023/12/28 08:58:02;;;;;;;10.30;5.10;;;;;;;2.31;69.95;100045.25;107057;1260;60388;-39
2023/12/28 09:00:30;;;;;;;12.50;5.50;;;;;;;2.29;69.67;100042.80;107114;1259;73862;-39
2023/12/28 09:02:57;;;;;;;11.40;5.10;;;;;;;2.24;70.00;100040.39;107049;1259;67211;-39
2023/12/28 09:05:25;;;;;;;12.30;5.80;;;;;;;2.23;70.18;100037.11;107061;1259;71885;-39
2023/12/28 09:07:52;;;;;;;28.00;7.10;;;;;;;2.24;70.31;100035.58;107113;1259;60572;-39
2023/12/28 09:10:20;;;;;;;10.70;4.80;;;;;;;2.28;70.08;100032.91;107053;1259;60894;-39
2023/12/28 09:12:48;;;;;;;13.60;5.10;;;;;;;2.37;69.76;100029.37;107059;1259;72716;-39
2023/12/28 09:15:16;;;;;;;11.60;5.70;;;;;;;2.42;69.57;100033.85;107044;1264;67581;-39
2023/12/28 09:17:44;;;;;;;20.20;6.00;;;;;;;2.41;69.44;100031.35;107059;1259;71469;-39
2023/12/28 09:20:11;;;;;;;20.20;6.50;;;;;;;2.42;69.78;100019.94;107097;1257;60340;-39
2023/12/28 09:22:40;;;;;;;9.30;5.00;;;;;;;2.47;69.80;100007.71;107328;1256;60481;-39
2023/12/28 09:25:07;;;;;;;9.40;5.10;;;;;;;2.49;69.35;100005.48;107210;1257;72570;-39
2023/12/28 09:27:35;;;;;;;9.60;4.70;;;;;;;2.50;69.41;100001.41;107238;1258;67643;-39
2023/12/28 09:30:04;;;;;;;17.70;5.90;;;;;;;2.52;69.34;100003.23;107098;1257;72452;-39
2023/12/28 09:32:31;;;;;;;17.80;5.40;;;;;;;2.61;68.99;100004.13;107202;1262;60495;-39
2023/12/28 09:34:59;;;;;;;8.90;4.90;;;;;;;2.71;68.83;99999.79;107145;1258;61133;-39
2023/12/28 09:37:27;;;;;;;11.90;5.10;;;;;;;2.75;68.56;99994.06;107120;1257;73919;-39
2023/12/28 09:39:54;;;;;;;13.90;6.20;;;;;;;2.75;68.41;99988.98;107078;1262;67532;-39
2023/12/28 09:42:26;;;;;;;11.20;5.30;;;;;;;2.73;68.71;99990.66;107132;1257;71373;-39
2023/12/28 09:44:54;;;;;;;13.90;6.40;;;;;;;2.70;68.65;99992.74;107142;1259;60553;-39
2023/12/28 09:47:22;;;;;;;14.00;6.30;;;;;;;2.66;68.84;99992.17;107249;1257;60447;-39
2023/12/28 09:49:49;;;;;;;13.70;5.30;;;;;;;2.64;69.06;99984.76;107111;1257;73986;-39
2023/12/28 09:52:17;;;;;;;14.70;5.90;;;;;;;2.65;69.02;99982.27;107127;1257;67518;-39
2023/12/28 09:54:44;;;;;;;10.90;5.70;;;;;;;2.71;68.83;99975.34;107072;1258;72756;-39
2023/12/28 09:57:12;;;;;;;9.30;5.00;;;;;;;2.76;68.90;99975.45;107104;1257;60550;-39
2023/12/28 09:59:40;;;;;;;8.70;4.60;;;;;;;2.78;68.77;99971.09;107045;1263;59273;-39
2023/12/28 10:02:07;;;;;;;14.50;5.80;;;;;;;2.79;68.75;99963.27;107157;1257;73837;-39
2023/12/28 10:04:36;;;;;;;16.60;5.20;;;;;;;2.81;68.57;99953.16;107143;1257;67616;-39
2023/12/28 10:07:04;;;;;;;8.90;5.30;;;;;;;2.84;68.44;99948.39;107171;1257;71411;-39
2023/12/28 10:09:32;;;;;;;12.60;5.30;;;;;;;2.89;68.14;99946.12;107128;1260;60511;-39
2023/12/28 10:12:00;;;;;;;13.20;5.50;;;;;;;2.91;68.15;99939.54;107135;1258;60379;-39
2023/12/28 10:14:27;;;;;;;11.90;4.80;;;;;;;2.95;67.90;99936.10;107124;1258;73778;-39
2023/12/28 10:16:55;;;;;;;25.60;5.60;;;;;;;3.06;68.02;99929.10;107121;1257;67535;-39
2023/12/28 10:19:23;;;;;;;38.00;9.00;;;;;;;3.21;67.80;99924.16;107124;1260;71522;-39
2023/12/28 10:21:51;;;;;;;15.90;6.90;;;;;;;3.29;67.62;99917.36;107138;1258;59586;-39
2023/12/28 10:24:21;;;;;;;17.90;8.40;;;;;;;3.38;67.78;99916.23;107260;1258;60066;-39
2023/12/28 10:26:49;;;;;;;15.40;7.30;;;;;;;3.49;67.02;99909.14;107066;1257;72602;-39
2023/12/28 10:29:16;;;;;;;13.00;6.40;;;;;;;3.61;66.60;99903.11;107254;1260;66562;-39
2023/12/28 10:31:49;;;;;;;12.90;6.50;;;;;;;3.70;66.04;99893.10;107112;1258;72487;-39
2023/12/28 10:34:18;;;;;;;37.10;7.80;;;;;;;3.78;65.81;99895.63;107144;1258;60354;-39
2023/12/28 10:36:46;;;;;;;11.40;5.10;;;;;;;3.89;65.47;99892.53;107127;1257;60467;-39
2023/12/28 10:39:15;;;;;;;12.90;6.10;;;;;;;4.06;65.16;99895.59;107153;1257;73844;-39
2023/12/28 10:41:44;;;;;;;9.30;5.20;;;;;;;4.25;64.36;99889.66;107124;1257;65954;-39
2023/12/28 10:44:11;;;;;;;34.40;6.30;;;;;;;4.42;63.02;99885.93;107146;1258;72704;-39
2023/12/28 10:46:43;;;;;;;15.80;6.00;;;;;;;4.59;62.81;99885.94;107008;1257;60361;-39
2023/12/28 10:49:12;;;;;;;13.70;6.40;;;;;;;4.73;62.18;99885.68;107272;1257;60309;-39
2023/12/28 10:51:45;;;;;;;11.60;6.40;;;;;;;4.87;62.07;99880.38;107265;1262;73910;-39
2023/12/28 10:54:47;;;;;;;14.50;6.00;;;;;;;5.03;61.53;99871.94;107261;1258;67712;-41
2023/12/28 10:57:44;;;;;;;14.00;5.30;;;;;;;5.17;61.07;99871.46;107231;1257;72834;-40
2023/12/28 11:00:21;;;;;;;11.10;5.20;;;;;;;5.32;60.27;99863.86;107038;1257;60430;-39
2023/12/28 11:02:52;;;;;;;10.20;5.20;;;;;;;5.40;60.15;99857.52;107075;1257;60623;-39
2023/12/28 11:05:20;;;;;;;11.10;5.00;;;;;;;5.50;60.09;99848.16;107138;1257;73065;-39
2023/12/28 11:07:48;;;;;;;17.40;5.80;;;;;;;5.61;59.97;99834.23;107103;1257;67882;-39
2023/12/28 11:10:16;;;;;;;12.30;5.30;;;;;;;5.74;59.47;99828.56;107092;1258;72801;-39
2023/12/28 11:12:43;;;;;;;9.50;4.70;;;;;;;5.88;59.42;99824.16;105553;1257;1003090;-39
2023/12/28 11:15:11;;;;;;;9.40;5.30;;;;;;;6.04;59.12;99817.96;107039;1257;59643;-39
2023/12/28 11:17:39;;;;;;;16.40;5.90;;;;;;;6.15;58.51;99814.91;107136;1257;73774;-39
2023/12/28 11:20:08;;;;;;;10.00;6.00;;;;;;;6.28;58.75;99804.06;103320;1257;1003750;-39
2023/12/28 11:22:35;;;;;;;13.70;5.30;;;;;;;6.44;58.18;99802.36;107110;1257;71988;-39
2023/12/28 11:25:04;;;;;;;11.50;4.90;;;;;;;6.57;57.60;99800.21;107145;1257;60482;-39
2023/12/28 11:27:36;;;;;;;14.20;5.10;;;;;;;6.70;57.30;99798.75;107143;1257;59629;-39
2023/12/28 11:30:05;;;;;;;12.70;5.00;;;;;;;6.77;57.06;99794.42;107157;1257;73845;-39